Terminal Aerodrome Forecast
Issued by NWS

Current Version | Previous Version | Graphics & Text | Print | Product List | Glossary On
Versions: 1 2 3 4 5 6 7 8 9 10 11 12 13 14 15 16 17 18 19 20 21
000
FTUS41 KRLX 260246 AAA
TAFCKB
TAF AMD
KCKB 260246Z 2603/2624 VRB03KT P6SM VCTS SCT035CB
     FM260500 23003KT P6SM SCT050
     FM260900 00000KT P6SM BKN040
     FM261000 00000KT 5SM BR SCT035
     FM261200 00000KT P6SM SCT035
     FM261900 21003KT P6SM SHRA VCTS OVC035CB
     FM262300 00000KT P6SM BKN070=

USA.gov is the U.S. government's official web portal to all federal, state and local government web resources and services.